Senin, cu puțini nori joși
Senin, cu puțini nori joși
Senin, cu puțini nori joși
Senin, cu puțini nori joși
Variabil, cu unele posibilități de nori de furtună
Variabil, cu unele posibilități de nori de furtună
Variabil, cu unele posibilități de nori de furtună
Variabil, cu unele posibilități de nori de furtună
Variabil, cu unele posibilități de nori de furtună
(°C)
29°
29°
26°
26°
25°
25°
25°
25°
24°
24°
24°
24°
24°
24°
25°
25°
25°
25°
(°C)
29°
28°
27°
27°
27°
27°
27°
27°
27°
ESE
E
E
E
ENE
NE
NNE
N
NNV
(km/h)
15-29
12-26
10-21
8-17
8-16
8-15
8-14
7-12
7-11
(mm)
0
0
0
0
0
0
0
0
0
(%)
0
0
4
0
0
0
0
0
0

Elevația soarelui

/ -5.6°
sun-icon
UV 10
07:01
21:21
Luna gibboasă în scădere (235°)
----
11:32

METAR pentru Alcantarilla (LERI)

Ora Condiții Temperatură/
Punctul de rouă
Vânt Vizibilitate Vremea Nori Presiune Schimbă Brut
VFR 31°C / 18°C 70º variable 040º to 100º 14kt 9700m - Clouds and Visibility OK 1008 No Significant change LERI 251800Z 07014KT 040V100 CAVOK 31/18 Q1008 NOSIG
VFR 32°C / 17°C 80º variable 050º to 110º 12kt 9700m - Clouds and Visibility OK 1008 No Significant change LERI 251730Z 08012KT 050V110 CAVOK 32/17 Q1008 NOSIG
VFR 34°C / 17°C 110º variable 080º to 150º 9kt 9700m - Clouds and Visibility OK 1008 No Significant change LERI 251700Z 11009KT 080V150 CAVOK 34/17 Q1008 NOSIG
VFR 34°C / 17°C 100º variable 080º to 140º 12kt 9700m - Clouds and Visibility OK 1008 No Significant change LERI 251630Z 10012KT 080V140 CAVOK 34/17 Q1008 NOSIG
VFR 35°C / 16°C 110º variable 090º to 150º 12kt 9700m - Clouds and Visibility OK 1008 No Significant change LERI 251600Z 11012KT 090V150 CAVOK 35/16 Q1008 NOSIG
VFR 35°C / 17°C 110º 13kt 9700m - Clouds and Visibility OK 1008 No Significant change LERI 251530Z 11013KT CAVOK 35/17 Q1008 NOSIG
VFR 36°C / 17°C 140º variable 110º to 170º 11kt 9700m - Clouds and Visibility OK 1008 No Significant change LERI 251500Z 14011KT 110V170 CAVOK 36/17 Q1008 NOSIG
VFR 36°C / 18°C 130º variable 100º to 160º 11kt 9700m - Clouds and Visibility OK 1009 No Significant change LERI 251430Z 13011KT 100V160 CAVOK 36/18 Q1009 NOSIG
VFR 36°C / 18°C 110º variable 080º to 140º 12kt 9700m - Clouds and Visibility OK 1009 No Significant change LERI 251400Z 11012KT 080V140 CAVOK 36/18 Q1009 NOSIG
VFR 36°C / 18°C 100º variable 070º to 140º 11kt 9700m - Clouds and Visibility OK 1009 No Significant change LERI 251330Z 10011KT 070V140 CAVOK 36/18 Q1009 NOSIG
VFR 36°C / 17°C 120º variable 070º to 180º 7kt 9700m - Clouds and Visibility OK 1009 No Significant change LERI 251300Z 12007KT 070V180 CAVOK 36/17 Q1009 NOSIG
VFR 35°C / 17°C 130º variable 070º to 160º 9kt 9700m - Clouds and Visibility OK 1010 No Significant change LERI 251230Z 13009KT 070V160 CAVOK 35/17 Q1010 NOSIG
VFR 35°C / 16°C 60º variable 340º to 120º 6kt 9700m - Clouds and Visibility OK 1010 No Significant change LERI 251200Z 06006KT 340V120 CAVOK 35/16 Q1010 NOSIG
VFR 34°C / 16°C 100º variable 050º to 140º 6kt 9700m - Clouds and Visibility OK 1010 No Significant change LERI 251130Z 10006KT 050V140 CAVOK 34/16 Q1010 NOSIG
VFR 33°C / 17°C 6kt Gust 16kt 9700m - Clouds and Visibility OK 1011 No Significant change LERI 251100Z VRB06G16KT CAVOK 33/17 Q1011 NOSIG
VFR 32°C / 18°C 60º variable 340º to 110º 5kt 9700m - Clouds and Visibility OK 1011 No Significant change LERI 251030Z 06005KT 340V110 CAVOK 32/18 Q1011 NOSIG
VFR 31°C / 18°C 40º variable 010º to 110º 5kt 9700m - Clouds and Visibility OK 1012 No Significant change LERI 251000Z 04005KT 010V110 CAVOK 31/18 Q1012 NOSIG
VFR 30°C / 19°C 70º variable 010º to 150º 4kt 9700m - Clouds and Visibility OK 1012 No Significant change LERI 250930Z 07004KT 010V150 CAVOK 30/19 Q1012 NOSIG
VFR 29°C / 17°C 40º variable 330º to 090º 4kt 9700m - Clouds and Visibility OK 1012 No Significant change LERI 250900Z 04004KT 330V090 CAVOK 29/17 Q1012 NOSIG
VFR 28°C / 18°C 50º variable 350º to 140º 4kt 9700m - Clouds and Visibility OK 1012 No Significant change LERI 250830Z 05004KT 350V140 CAVOK 28/18 Q1012 NOSIG
VFR 27°C / 16°C 2kt 9700m - Clouds and Visibility OK 1013 No Significant change LERI 250800Z VRB02KT CAVOK 27/16 Q1013 NOSIG
VFR 26°C / 16°C 2kt 9700m - Clouds and Visibility OK 1013 No Significant change LERI 250730Z VRB02KT CAVOK 26/16 Q1013 NOSIG
VFR 25°C / 16°C 1kt 9700m - Clouds and Visibility OK 1013 No Significant change LERI 250700Z VRB01KT CAVOK 25/16 Q1013 NOSIG
VFR 23°C / 13°C 1kt 9700m - Clouds and Visibility OK 1013 No Significant change LERI 250630Z VRB01KT CAVOK 23/13 Q1013 NOSIG

VFR

31°C / 18°C

[Mai mult]
Vânt 70º variable 040º to 100º 14kt
Vizibilitate 9700m
Vremea -
Nori Clouds and Visibility OK
Presiune 1008
Schimbă No Significant change
Brut LERI 251800Z 07014KT 040V100 CAVOK 31/18 Q1008 NOSIG

VFR

32°C / 17°C

[Mai mult]
Vânt 80º variable 050º to 110º 12kt
Vizibilitate 9700m
Vremea -
Nori Clouds and Visibility OK
Presiune 1008
Schimbă No Significant change
Brut LERI 251730Z 08012KT 050V110 CAVOK 32/17 Q1008 NOSIG

VFR

34°C / 17°C

[Mai mult]
Vânt 110º variable 080º to 150º 9kt
Vizibilitate 9700m
Vremea -
Nori Clouds and Visibility OK
Presiune 1008
Schimbă No Significant change
Brut LERI 251700Z 11009KT 080V150 CAVOK 34/17 Q1008 NOSIG

VFR

34°C / 17°C

[Mai mult]
Vânt 100º variable 080º to 140º 12kt
Vizibilitate 9700m
Vremea -
Nori Clouds and Visibility OK
Presiune 1008
Schimbă No Significant change
Brut LERI 251630Z 10012KT 080V140 CAVOK 34/17 Q1008 NOSIG

VFR

35°C / 16°C

[Mai mult]
Vânt 110º variable 090º to 150º 12kt
Vizibilitate 9700m
Vremea -
Nori Clouds and Visibility OK
Presiune 1008
Schimbă No Significant change
Brut LERI 251600Z 11012KT 090V150 CAVOK 35/16 Q1008 NOSIG

VFR

35°C / 17°C

[Mai mult]
Vânt 110º 13kt
Vizibilitate 9700m
Vremea -
Nori Clouds and Visibility OK
Presiune 1008
Schimbă No Significant change
Brut LERI 251530Z 11013KT CAVOK 35/17 Q1008 NOSIG

VFR

36°C / 17°C

[Mai mult]
Vânt 140º variable 110º to 170º 11kt
Vizibilitate 9700m
Vremea -
Nori Clouds and Visibility OK
Presiune 1008
Schimbă No Significant change
Brut LERI 251500Z 14011KT 110V170 CAVOK 36/17 Q1008 NOSIG

VFR

36°C / 18°C

[Mai mult]
Vânt 130º variable 100º to 160º 11kt
Vizibilitate 9700m
Vremea -
Nori Clouds and Visibility OK
Presiune 1009
Schimbă No Significant change
Brut LERI 251430Z 13011KT 100V160 CAVOK 36/18 Q1009 NOSIG

VFR

36°C / 18°C

[Mai mult]
Vânt 110º variable 080º to 140º 12kt
Vizibilitate 9700m
Vremea -
Nori Clouds and Visibility OK
Presiune 1009
Schimbă No Significant change
Brut LERI 251400Z 11012KT 080V140 CAVOK 36/18 Q1009 NOSIG

VFR

36°C / 18°C

[Mai mult]
Vânt 100º variable 070º to 140º 11kt
Vizibilitate 9700m
Vremea -
Nori Clouds and Visibility OK
Presiune 1009
Schimbă No Significant change
Brut LERI 251330Z 10011KT 070V140 CAVOK 36/18 Q1009 NOSIG

VFR

36°C / 17°C

[Mai mult]
Vânt 120º variable 070º to 180º 7kt
Vizibilitate 9700m
Vremea -
Nori Clouds and Visibility OK
Presiune 1009
Schimbă No Significant change
Brut LERI 251300Z 12007KT 070V180 CAVOK 36/17 Q1009 NOSIG

VFR

35°C / 17°C

[Mai mult]
Vânt 130º variable 070º to 160º 9kt
Vizibilitate 9700m
Vremea -
Nori Clouds and Visibility OK
Presiune 1010
Schimbă No Significant change
Brut LERI 251230Z 13009KT 070V160 CAVOK 35/17 Q1010 NOSIG

VFR

35°C / 16°C

[Mai mult]
Vânt 60º variable 340º to 120º 6kt
Vizibilitate 9700m
Vremea -
Nori Clouds and Visibility OK
Presiune 1010
Schimbă No Significant change
Brut LERI 251200Z 06006KT 340V120 CAVOK 35/16 Q1010 NOSIG

VFR

34°C / 16°C

[Mai mult]
Vânt 100º variable 050º to 140º 6kt
Vizibilitate 9700m
Vremea -
Nori Clouds and Visibility OK
Presiune 1010
Schimbă No Significant change
Brut LERI 251130Z 10006KT 050V140 CAVOK 34/16 Q1010 NOSIG

VFR

33°C / 17°C

[Mai mult]
Vânt 6kt Gust 16kt
Vizibilitate 9700m
Vremea -
Nori Clouds and Visibility OK
Presiune 1011
Schimbă No Significant change
Brut LERI 251100Z VRB06G16KT CAVOK 33/17 Q1011 NOSIG

VFR

32°C / 18°C

[Mai mult]
Vânt 60º variable 340º to 110º 5kt
Vizibilitate 9700m
Vremea -
Nori Clouds and Visibility OK
Presiune 1011
Schimbă No Significant change
Brut LERI 251030Z 06005KT 340V110 CAVOK 32/18 Q1011 NOSIG

VFR

31°C / 18°C

[Mai mult]
Vânt 40º variable 010º to 110º 5kt
Vizibilitate 9700m
Vremea -
Nori Clouds and Visibility OK
Presiune 1012
Schimbă No Significant change
Brut LERI 251000Z 04005KT 010V110 CAVOK 31/18 Q1012 NOSIG

VFR

30°C / 19°C

[Mai mult]
Vânt 70º variable 010º to 150º 4kt
Vizibilitate 9700m
Vremea -
Nori Clouds and Visibility OK
Presiune 1012
Schimbă No Significant change
Brut LERI 250930Z 07004KT 010V150 CAVOK 30/19 Q1012 NOSIG

VFR

29°C / 17°C

[Mai mult]
Vânt 40º variable 330º to 090º 4kt
Vizibilitate 9700m
Vremea -
Nori Clouds and Visibility OK
Presiune 1012
Schimbă No Significant change
Brut LERI 250900Z 04004KT 330V090 CAVOK 29/17 Q1012 NOSIG

VFR

28°C / 18°C

[Mai mult]
Vânt 50º variable 350º to 140º 4kt
Vizibilitate 9700m
Vremea -
Nori Clouds and Visibility OK
Presiune 1012
Schimbă No Significant change
Brut LERI 250830Z 05004KT 350V140 CAVOK 28/18 Q1012 NOSIG

VFR

27°C / 16°C

[Mai mult]
Vânt 2kt
Vizibilitate 9700m
Vremea -
Nori Clouds and Visibility OK
Presiune 1013
Schimbă No Significant change
Brut LERI 250800Z VRB02KT CAVOK 27/16 Q1013 NOSIG

VFR

26°C / 16°C

[Mai mult]
Vânt 2kt
Vizibilitate 9700m
Vremea -
Nori Clouds and Visibility OK
Presiune 1013
Schimbă No Significant change
Brut LERI 250730Z VRB02KT CAVOK 26/16 Q1013 NOSIG

VFR

25°C / 16°C

[Mai mult]
Vânt 1kt
Vizibilitate 9700m
Vremea -
Nori Clouds and Visibility OK
Presiune 1013
Schimbă No Significant change
Brut LERI 250700Z VRB01KT CAVOK 25/16 Q1013 NOSIG

VFR

23°C / 13°C

[Mai mult]
Vânt 1kt
Vizibilitate 9700m
Vremea -
Nori Clouds and Visibility OK
Presiune 1013
Schimbă No Significant change
Brut LERI 250630Z VRB01KT CAVOK 23/13 Q1013 NOSIG

TAF pentru Alcantarilla (LERI)

From till


Maximum Temperature 35ºC on . Minimum Temperature 22ºC on .
From till Wind 130º 10kt. Visibility 9700m. Nil Significant Cloud.
Becoming from till
With 30% probability, Temporarly from till Broken Clouds 1200ft.
Becoming from till

Brut: TAF LERI 251700Z 2518/2618 13010KT CAVOK TX35/2615Z TN22/2605Z BECMG 2522/2524 05005KT PROB30 TEMPO 2522/2608 BKN012 BECMG 2609/2611 11010KT

Radar și nowcast de precipitații pentru Alcantarilla

Burniță
Ușoară
Moderat
Greu
Foarte greu
Grindină

Markerul de locație este plasat în Alcantarilla. Această animație arată radarul de precipitații pentru intervalul de timp selectat, precum și o prognoză 2h. Crucile portocalii indică fulgerele. Date furnizate de nowcast.de (disponibile în SUA, Europa, Australia). Ploaia sau ninsoarea slabă ar putea fi invizibilă pentru radar. Intensitatea precipitațiilor este codificată prin culori, de la turcoaz la roșu.

Imagini satelitare și ploaie pentru Alcantarilla, Spania

Markerul cu locaţia este poziţionat pe Alcantarilla. [Mai mult]

Imaginea satelitară în timp real combină lumina vizibilă din timpul zilei cu radiația cu infraroșu din timpul nopții. Pe timp de noapte, imaginea nu este întunecată, deoarece radiația cu infraroșu poate detecta diferențele de temperatură. Din păcate, norii joși și ceața sunt greu de recunoscut față de temperatura de la sol, din această cauză putând fi invizibili pe timp de noapte. Imaginile satelitare Meteosat pentru Europa sunt actualizate în timp real din 5 în 5 minute. Imaginile GOES-16/GOES-17 (America de Nord și de Sud) și Himawari (Asia) sunt actualizate din 10 în 10 minute.

Precipitațiile sunt estimate pe baza radarelor și a sateliților. Estimările de precipitații de la sateliți sunt mai puțin precise pe timp de noapte decât pe timp de zi.

© 2024 meteoblue, NOAA Satellites GOES-16 and EUMETSAT. Datele despre fulgere furnizate de către nowcast.

Mergi sus
×
Bună ziua,
se pare că folosiți un blocant de reclame.

Publicitatea este esențială pentru a menține site-ul nostru gratuit cu detalii și acuratețe unice.

Vă rugăm să whitelist www.meteoblue.com în ad blocker-ul dvs. sau luați în considerare cumpărarea unuia dintre produsele noastre:

Aveți deja un abonament?
Atunci vă rugăm login.